createdAt,value
2022-10-19T00:01:05.359Z,4.10
2022-10-19T00:03:33.468Z,3.90
2022-10-19T00:06:12.211Z,3.80
2022-10-19T00:08:39.944Z,4.87
2022-10-19T00:11:07.979Z,4.70
2022-10-19T00:13:35.776Z,6.37
2022-10-19T00:16:11.335Z,5.70
2022-10-19T00:18:43.324Z,6.63
2022-10-19T00:21:14.325Z,5.70
2022-10-19T00:23:42.245Z,7.10
2022-10-19T00:26:10.109Z,6.57
2022-10-19T00:28:37.926Z,8.40
2022-10-19T00:31:06.757Z,7.63
2022-10-19T00:33:34.714Z,6.93
2022-10-19T00:36:06.389Z,7.53
2022-10-19T00:38:35.518Z,7.97
2022-10-19T00:41:03.746Z,5.77
2022-10-19T00:43:32.464Z,5.80
2022-10-19T00:46:00.192Z,5.37
2022-10-19T00:48:32.141Z,6.37
2022-10-19T00:51:00.982Z,4.83
2022-10-19T00:53:31.426Z,5.50
2022-10-19T00:56:06.497Z,4.37
2022-10-19T00:58:34.926Z,4.20
2022-10-19T01:01:06.028Z,3.80
2022-10-19T01:03:35.125Z,3.87
2022-10-19T01:06:04.086Z,3.60
2022-10-19T01:08:31.934Z,4.13
2022-10-19T01:11:15.227Z,4.30
2022-10-19T01:13:52.263Z,3.47
2022-10-19T01:16:29.164Z,4.67
2022-10-19T01:19:04.351Z,5.33
2022-10-19T01:21:37.118Z,4.70
2022-10-19T01:24:49.072Z,7.77
2022-10-19T01:27:55.541Z,7.47
2022-10-19T01:30:39.089Z,5.73
2022-10-19T01:33:32.899Z,8.13
2022-10-19T01:36:11.786Z,7.87
2022-10-19T01:38:51.902Z,6.73
2022-10-19T01:41:27.691Z,7.40
2022-10-19T01:44:00.789Z,7.00
2022-10-19T01:46:34.620Z,11.77
2022-10-19T01:49:08.960Z,10.80
2022-10-19T01:51:40.246Z,8.53
2022-10-19T01:54:14.098Z,8.20
2022-10-19T01:56:44.151Z,7.23
2022-10-19T01:59:13.318Z,10.70
2022-10-19T02:01:45.158Z,7.67
2022-10-19T02:04:16.690Z,9.77
2022-10-19T02:06:45.354Z,9.23
2022-10-19T02:09:17.889Z,9.63
2022-10-19T02:11:49.677Z,12.00
2022-10-19T02:14:23.206Z,10.53
2022-10-19T02:16:58.097Z,9.60
2022-10-19T02:19:26.028Z,9.40
2022-10-19T02:21:53.875Z,8.23
2022-10-19T02:24:21.560Z,7.70
2022-10-19T02:26:50.185Z,9.17
2022-10-19T02:29:18.200Z,9.03
2022-10-19T02:31:46.170Z,10.03
2022-10-19T02:34:15.444Z,12.43
2022-10-19T02:36:43.215Z,12.57
2022-10-19T02:39:11.111Z,10.82
2022-10-19T02:41:45.393Z,12.07
2022-10-19T02:44:19.284Z,8.40
2022-10-19T02:46:50.787Z,9.57
2022-10-19T02:49:20.389Z,10.70
2022-10-19T02:52:00.237Z,7.37
2022-10-19T02:54:28.683Z,7.43
2022-10-19T02:56:57.150Z,8.00
2022-10-19T02:59:25.537Z,9.00
2022-10-19T03:01:53.634Z,8.13
2022-10-19T03:04:22.706Z,10.95
2022-10-19T03:06:50.419Z,13.03
2022-10-19T03:09:20.470Z,8.90
2022-10-19T03:11:48.192Z,7.85
2022-10-19T03:14:15.919Z,10.15
2022-10-19T03:16:43.652Z,9.63
2022-10-19T03:19:11.416Z,8.80
2022-10-19T03:21:43.173Z,13.97
2022-10-19T03:24:10.954Z,9.27
2022-10-19T03:26:38.715Z,10.90
2022-10-19T03:29:06.436Z,9.47
2022-10-19T03:31:34.154Z,9.63
2022-10-19T03:34:02.021Z,8.27
2022-10-19T03:36:31.955Z,15.48
2022-10-19T03:39:03.138Z,15.73
2022-10-19T03:41:33.211Z,13.73
2022-10-19T03:46:34.788Z,8.93
2022-10-19T03:49:05.403Z,11.07
2022-10-19T03:54:06.922Z,13.00
2022-10-19T03:56:36.147Z,13.30
2022-10-19T03:59:06.001Z,14.60
2022-10-19T04:01:35.297Z,18.88
2022-10-19T04:04:05.729Z,18.27
2022-10-19T04:06:36.394Z,13.03
2022-10-19T04:09:06.992Z,13.43
2022-10-19T04:11:37.177Z,13.53
2022-10-19T04:16:40.690Z,11.60
2022-10-19T04:19:09.559Z,13.20
2022-10-19T04:21:40.403Z,12.03
2022-10-19T04:24:12.311Z,11.83
2022-10-19T04:26:42.191Z,15.57
2022-10-19T04:29:11.063Z,17.63
2022-10-19T04:31:41.890Z,19.20
2022-10-19T04:34:10.129Z,17.50
2022-10-19T04:36:38.102Z,17.95
2022-10-19T04:39:09.972Z,18.00
2022-10-19T04:41:39.348Z,18.05
2022-10-19T04:44:07.487Z,16.70
2022-10-19T04:46:35.637Z,18.03
2022-10-19T04:49:04.304Z,18.67
2022-10-19T04:51:32.201Z,18.17
2022-10-19T04:54:00.106Z,19.90
2022-10-19T04:56:30.787Z,21.67
2022-10-19T04:58:59.651Z,21.27
2022-10-19T05:01:30.857Z,21.57
2022-10-19T05:04:00.904Z,23.33
2022-10-19T05:06:29.225Z,18.27
2022-10-19T05:08:57.402Z,19.33
2022-10-19T05:11:25.735Z,18.83
2022-10-19T05:13:54.967Z,15.73
2022-10-19T05:16:24.377Z,16.70
2022-10-19T05:18:55.977Z,18.27
2022-10-19T05:21:23.750Z,16.53
2022-10-19T05:23:53.199Z,14.23
2022-10-19T05:26:23.422Z,15.57
2022-10-19T05:28:56.192Z,13.60
2022-10-19T05:31:27.897Z,10.00
2022-10-19T05:33:57.205Z,12.63
2022-10-19T05:36:27.550Z,9.80
2022-10-19T05:38:57.091Z,12.07
2022-10-19T05:41:26.347Z,12.70
2022-10-19T05:43:55.757Z,9.80
2022-10-19T05:46:28.155Z,11.77
2022-10-19T05:48:57.150Z,11.47
2022-10-19T05:51:26.045Z,10.33
2022-10-19T05:53:54.366Z,10.97
2022-10-19T05:56:24.213Z,11.40
2022-10-19T05:58:52.697Z,11.00
2022-10-19T06:01:21.057Z,11.60
2022-10-19T06:03:53.555Z,10.87
2022-10-19T06:06:21.493Z,11.20
2022-10-19T06:08:49.968Z,10.67
2022-10-19T06:11:19.679Z,11.90
2022-10-19T06:13:50.341Z,11.10
2022-10-19T06:16:19.798Z,11.57
2022-10-19T06:18:48.053Z,11.40
2022-10-19T06:21:22.648Z,9.23
2022-10-19T06:23:51.605Z,10.83
2022-10-19T06:26:19.570Z,8.33
2022-10-19T06:28:47.653Z,10.10
2022-10-19T06:31:15.660Z,10.97
2022-10-19T06:33:49.229Z,9.60
2022-10-19T06:36:23.129Z,8.87
2022-10-19T06:38:51.116Z,9.67
2022-10-19T06:41:18.861Z,9.73
2022-10-19T06:43:51.026Z,9.10
2022-10-19T06:46:23.101Z,7.83
2022-10-19T06:48:52.380Z,7.37
2022-10-19T06:51:22.137Z,8.10
2022-10-19T06:53:54.300Z,8.67
2022-10-19T06:56:25.468Z,6.00
2022-10-19T06:58:53.460Z,6.53
2022-10-19T07:01:21.607Z,5.77
2022-10-19T07:03:51.693Z,4.40
2022-10-19T07:06:21.355Z,3.97
2022-10-19T07:08:50.025Z,3.80
2022-10-19T07:11:19.919Z,5.28
2022-10-19T07:13:47.859Z,7.27
2022-10-19T07:16:20.931Z,7.80
2022-10-19T07:18:50.076Z,8.17
2022-10-19T07:21:18.868Z,6.67
2022-10-19T07:23:48.550Z,5.93
2022-10-19T07:26:21.295Z,5.15
2022-10-19T07:28:50.043Z,5.30
2022-10-19T07:31:21.511Z,7.78
2022-10-19T07:33:53.781Z,7.45
2022-10-19T07:36:21.651Z,6.60
2022-10-19T07:38:50.752Z,7.63
2022-10-19T07:41:20.917Z,6.53
2022-10-19T07:43:49.445Z,6.85
2022-10-19T07:46:19.406Z,7.43
2022-10-19T07:48:48.091Z,8.82
2022-10-19T07:51:18.151Z,10.50
2022-10-19T07:53:46.374Z,7.85
2022-10-19T07:56:17.142Z,8.88
2022-10-19T07:58:45.068Z,8.85
2022-10-19T08:01:15.373Z,9.68
2022-10-19T08:04:42.761Z,9.75
2022-10-19T08:06:31.643Z,9.10
2022-10-19T08:08:59.542Z,10.38
2022-10-19T08:11:32.047Z,7.55
2022-10-19T08:14:00.116Z,10.80
2022-10-19T08:16:29.417Z,9.15
2022-10-19T08:19:01.109Z,9.40
2022-10-19T08:21:31.263Z,7.28
2022-10-19T08:23:59.018Z,9.32
2022-10-19T08:26:29.608Z,10.07
2022-10-19T08:29:00.783Z,8.43
2022-10-19T08:31:29.086Z,8.38
2022-10-19T08:33:57.562Z,7.28
2022-10-19T08:36:25.996Z,8.15
2022-10-19T08:38:54.162Z,9.00
2022-10-19T08:41:56.503Z,6.82
2022-10-19T08:44:54.456Z,8.18
2022-10-19T08:47:46.173Z,5.18
2022-10-19T08:50:21.345Z,8.55
2022-10-19T08:52:56.284Z,8.30
2022-10-19T08:55:31.014Z,6.45
2022-10-19T08:58:11.266Z,9.15
2022-10-19T09:00:44.788Z,8.60
2022-10-19T09:03:32.146Z,9.10
2022-10-19T09:06:20.437Z,5.57
2022-10-19T09:08:49.383Z,8.15
2022-10-19T09:11:21.516Z,7.38
2022-10-19T09:14:05.038Z,7.13
2022-10-19T09:16:34.677Z,7.05
2022-10-19T09:19:02.834Z,5.95
2022-10-19T09:21:44.575Z,5.75
2022-10-19T09:24:28.324Z,6.00
2022-10-19T09:26:58.093Z,5.22
2022-10-19T09:29:37.377Z,4.63
2022-10-19T09:32:06.826Z,4.82
2022-10-19T09:34:38.227Z,3.88
2022-10-19T09:37:06.071Z,3.78
2022-10-19T09:39:35.280Z,3.88
2022-10-19T09:42:11.328Z,3.47
2022-10-19T09:44:40.514Z,4.15
2022-10-19T09:47:24.663Z,2.95
2022-10-19T09:50:06.222Z,3.58
2022-10-19T09:52:38.955Z,3.13
2022-10-19T09:55:08.663Z,3.30
2022-10-19T09:57:42.956Z,2.70
2022-10-19T10:00:20.309Z,2.85
2022-10-19T10:02:51.910Z,2.72
2022-10-19T10:05:21.478Z,2.00
2022-10-19T10:07:56.326Z,2.55
2022-10-19T10:10:29.646Z,2.40
2022-10-19T10:12:59.661Z,2.03
2022-10-19T10:15:36.269Z,1.98
2022-10-19T10:18:04.841Z,2.05
2022-10-19T10:20:33.320Z,2.15
2022-10-19T10:23:03.573Z,2.25
2022-10-19T10:25:33.808Z,1.77
2022-10-19T10:28:04.420Z,1.88
2022-10-19T10:30:36.250Z,1.90
2022-10-19T10:33:15.897Z,1.90
2022-10-19T10:35:53.784Z,2.20
2022-10-19T10:38:25.923Z,2.03
2022-10-19T10:40:57.759Z,2.13
2022-10-19T10:43:30.501Z,2.25
2022-10-19T10:46:05.624Z,1.73
2022-10-19T10:48:39.374Z,2.25
2022-10-19T10:51:20.770Z,2.17
2022-10-19T10:53:48.817Z,2.20
2022-10-19T10:56:25.898Z,2.20
2022-10-19T10:58:59.646Z,2.53
2022-10-19T11:01:31.990Z,2.10
2022-10-19T11:04:12.198Z,2.10
2022-10-19T11:06:45.299Z,2.00
2022-10-19T11:09:22.938Z,2.03
2022-10-19T11:11:55.847Z,2.30
2022-10-19T11:14:29.953Z,2.50
2022-10-19T11:17:04.643Z,2.50
2022-10-19T11:19:36.720Z,2.38
2022-10-19T11:22:16.952Z,2.20
2022-10-19T11:24:58.817Z,1.75
2022-10-19T11:27:42.096Z,2.40
2022-10-19T11:30:14.176Z,2.28
2022-10-19T11:32:58.321Z,1.95
2022-10-19T11:35:38.782Z,2.03
2022-10-19T11:38:29.612Z,2.95
2022-10-19T11:41:24.135Z,3.00
2022-10-19T11:44:17.944Z,2.78
2022-10-19T11:46:59.477Z,3.45
2022-10-19T11:49:42.764Z,2.90
2022-10-19T11:52:17.722Z,2.60
2022-10-19T11:55:00.992Z,2.90
2022-10-19T11:57:32.809Z,2.47
2022-10-19T12:00:15.339Z,3.20
2022-10-19T12:03:22.560Z,3.08
2022-10-19T12:06:03.799Z,2.58
2022-10-19T12:08:43.290Z,2.75
2022-10-19T12:11:26.044Z,2.67
2022-10-19T12:13:57.954Z,2.65
2022-10-19T12:16:31.811Z,2.50
2022-10-19T12:19:01.456Z,2.30
2022-10-19T12:21:34.547Z,2.75
2022-10-19T12:24:04.961Z,2.40
2022-10-19T12:26:37.807Z,2.17
2022-10-19T12:29:12.589Z,2.40
2022-10-19T12:31:41.173Z,2.17
2022-10-19T12:34:20.772Z,2.45
2022-10-19T12:36:56.497Z,2.10
2022-10-19T12:39:30.442Z,2.10
2022-10-19T12:42:10.532Z,2.05
2022-10-19T12:45:05.763Z,2.00
2022-10-19T12:47:36.169Z,1.83
2022-10-19T12:50:07.255Z,2.63
2022-10-19T12:52:40.605Z,2.55
2022-10-19T12:55:13.939Z,2.35
2022-10-19T12:57:47.976Z,2.60
2022-10-19T13:00:22.477Z,2.85
2022-10-19T13:02:59.509Z,2.60
2022-10-19T13:05:29.734Z,2.22
2022-10-19T13:08:03.273Z,2.92
2022-10-19T13:10:32.943Z,2.17
2022-10-19T13:13:01.490Z,2.90
2022-10-19T13:15:56.128Z,2.50
2022-10-19T13:19:09.359Z,2.72
2022-10-19T13:21:49.426Z,2.65
2022-10-19T13:24:32.269Z,2.03
2022-10-19T13:27:29.274Z,3.40
2022-10-19T13:29:57.253Z,2.97
2022-10-19T13:32:42.904Z,2.20
2022-10-19T13:35:31.260Z,3.10
2022-10-19T13:38:21.030Z,2.92
2022-10-19T13:41:03.943Z,2.30
2022-10-19T13:43:34.725Z,2.90
2022-10-19T13:46:08.731Z,2.47
2022-10-19T13:48:58.079Z,2.70
2022-10-19T13:51:33.214Z,2.92
2022-10-19T13:54:11.459Z,2.55
2022-10-19T13:56:56.345Z,2.53
2022-10-19T14:00:02.173Z,2.88
2022-10-19T14:03:01.006Z,2.70
2022-10-19T14:05:54.450Z,2.17
2022-10-19T14:08:40.033Z,2.78
2022-10-19T14:11:15.690Z,2.10
2022-10-19T14:13:45.037Z,2.10
2022-10-19T14:16:21.359Z,1.77
2022-10-19T14:18:55.782Z,2.50
2022-10-19T14:21:30.960Z,2.58
2022-10-19T14:23:59.164Z,2.10
2022-10-19T14:26:30.877Z,2.20
2022-10-19T14:29:00.911Z,1.95
2022-10-19T14:31:35.083Z,2.00
2022-10-19T14:34:05.002Z,2.00
2022-10-19T14:36:38.176Z,2.33
2022-10-19T14:39:07.639Z,2.65
2022-10-19T14:41:37.736Z,1.95
2022-10-19T14:44:37.264Z,2.17
2022-10-19T14:47:17.257Z,2.10
2022-10-19T14:49:45.057Z,1.70
2022-10-19T14:52:17.259Z,2.63
2022-10-19T14:54:48.592Z,2.50
2022-10-19T14:57:20.509Z,2.17
2022-10-19T14:59:53.148Z,1.90
2022-10-19T15:02:24.196Z,1.75
2022-10-19T15:04:53.893Z,1.90
2022-10-19T15:07:25.039Z,1.88
2022-10-19T15:09:57.602Z,2.40
2022-10-19T15:12:29.456Z,1.98
2022-10-19T15:14:59.085Z,2.28
2022-10-19T15:17:29.069Z,2.00
2022-10-19T15:20:01.388Z,1.90
2022-10-19T15:22:40.513Z,2.92
2022-10-19T15:25:35.350Z,2.08
2022-10-19T15:28:32.423Z,1.75
2022-10-19T15:31:06.879Z,2.55
2022-10-19T15:33:40.421Z,2.60
2022-10-19T15:36:16.915Z,2.85
2022-10-19T15:38:46.164Z,2.65
2022-10-19T15:41:22.562Z,3.13
2022-10-19T15:43:52.158Z,3.42
2022-10-19T15:46:24.923Z,3.42
2022-10-19T15:48:56.380Z,2.45
2022-10-19T15:51:46.875Z,2.97
2022-10-19T15:54:17.284Z,3.50
2022-10-19T15:56:46.719Z,3.47
2022-10-19T15:59:20.566Z,2.78
2022-10-19T16:01:55.044Z,3.25
2022-10-19T16:04:23.795Z,2.95
2022-10-19T16:06:51.574Z,3.20
2022-10-19T16:09:22.590Z,3.75
2022-10-19T16:11:56.399Z,3.05
2022-10-19T16:14:24.245Z,3.05
2022-10-19T16:16:53.304Z,2.60
2022-10-19T16:19:21.042Z,3.03
2022-10-19T16:21:50.410Z,2.38
2022-10-19T16:24:18.354Z,2.42
2022-10-19T16:26:46.104Z,2.15
2022-10-19T16:29:13.837Z,2.20
2022-10-19T16:31:41.819Z,2.20
2022-10-19T16:34:11.153Z,2.70
2022-10-19T16:36:38.876Z,2.65
2022-10-19T16:39:06.574Z,3.13
2022-10-19T16:41:34.360Z,3.45
2022-10-19T16:44:02.124Z,3.83
2022-10-19T16:46:29.924Z,3.60
2022-10-19T16:49:00.011Z,5.03
2022-10-19T16:51:35.034Z,4.50
2022-10-19T16:54:03.658Z,4.72
2022-10-19T16:56:32.124Z,5.15
2022-10-19T16:59:01.943Z,5.17
2022-10-19T17:01:30.890Z,4.80
2022-10-19T17:03:58.845Z,4.50
2022-10-19T17:06:28.482Z,4.77
2022-10-19T17:09:30.158Z,4.40
2022-10-19T17:11:48.900Z,4.70
2022-10-19T17:14:16.733Z,4.80
2022-10-19T17:16:46.917Z,4.45
2022-10-19T17:19:15.071Z,5.60
2022-10-19T17:21:43.148Z,4.25
2022-10-19T17:24:21.356Z,4.90
2022-10-19T17:26:51.781Z,4.60
2022-10-19T17:29:21.063Z,5.40
2022-10-19T17:31:49.540Z,4.97
2022-10-19T17:34:20.252Z,4.97
2022-10-19T17:36:48.148Z,5.50
2022-10-19T17:39:19.613Z,4.88
2022-10-19T17:41:48.878Z,5.00
2022-10-19T17:44:17.961Z,5.78
2022-10-19T17:46:46.225Z,5.38
2022-10-19T17:49:14.854Z,4.63
2022-10-19T17:51:42.622Z,5.17
2022-10-19T17:54:13.307Z,3.92
2022-10-19T17:56:45.112Z,4.70
2022-10-19T17:59:13.634Z,4.32
2022-10-19T18:01:43.618Z,4.17
2022-10-19T18:04:12.065Z,5.13
2022-10-19T18:06:40.278Z,5.40
2022-10-19T18:09:10.193Z,6.20
2022-10-19T18:11:40.925Z,6.53
2022-10-19T18:14:11.812Z,6.00
2022-10-19T18:16:42.090Z,6.18
2022-10-19T18:19:12.234Z,6.13
2022-10-19T18:21:41.868Z,6.90
2022-10-19T18:24:15.265Z,7.50
2022-10-19T18:26:44.137Z,6.90
2022-10-19T18:29:16.141Z,7.47
2022-10-19T18:31:44.068Z,7.40
2022-10-19T18:34:15.231Z,7.65
2022-10-19T18:36:43.764Z,7.65
2022-10-19T18:39:13.836Z,7.55
2022-10-19T18:41:42.257Z,7.83
2022-10-19T18:44:14.685Z,7.55
2022-10-19T18:46:42.614Z,6.60
2022-10-19T18:49:12.488Z,6.13
2022-10-19T18:51:40.552Z,6.07
2022-10-19T18:54:12.009Z,7.00
2022-10-19T18:56:39.757Z,8.57
2022-10-19T18:59:07.803Z,7.67
2022-10-19T19:01:36.908Z,7.15
2022-10-19T19:04:08.882Z,4.93
2022-10-19T19:06:37.410Z,5.68
2022-10-19T19:09:07.740Z,8.10
2022-10-19T19:11:38.124Z,7.05
2022-10-19T19:14:07.855Z,6.07
2022-10-19T19:16:39.106Z,8.40
2022-10-19T19:19:08.380Z,8.05
2022-10-19T19:21:36.928Z,8.63
2022-10-19T19:24:07.069Z,9.85
2022-10-19T19:26:38.248Z,9.70
2022-10-19T19:29:06.265Z,10.93
2022-10-19T19:31:34.355Z,11.05
2022-10-19T19:34:05.723Z,10.90
2022-10-19T19:36:33.581Z,11.93
2022-10-19T19:39:01.346Z,11.30
2022-10-19T19:41:31.094Z,11.00
2022-10-19T19:43:58.985Z,11.83
2022-10-19T19:46:27.459Z,11.95
2022-10-19T19:49:00.995Z,11.55
2022-10-19T19:51:31.750Z,11.45
2022-10-19T19:54:02.005Z,11.18
2022-10-19T19:56:29.988Z,11.57
2022-10-19T19:58:59.805Z,11.73
2022-10-19T20:01:27.951Z,11.63
2022-10-19T20:03:58.497Z,9.80
2022-10-19T20:06:26.322Z,11.75
2022-10-19T20:08:56.315Z,8.35
2022-10-19T20:11:25.585Z,10.43
2022-10-19T20:13:53.488Z,10.52
2022-10-19T20:16:26.592Z,10.90
2022-10-19T20:19:00.962Z,10.52
2022-10-19T20:21:28.764Z,10.45
2022-10-19T20:23:58.015Z,8.00
2022-10-19T20:26:27.040Z,10.45
2022-10-19T20:28:55.073Z,7.33
2022-10-19T20:31:23.437Z,9.32
2022-10-19T20:33:51.326Z,10.15
2022-10-19T20:36:21.079Z,9.90
2022-10-19T20:38:53.021Z,6.60
2022-10-19T20:41:25.957Z,10.17
2022-10-19T20:43:54.542Z,8.75
2022-10-19T20:46:24.717Z,7.97
2022-10-19T20:48:53.053Z,9.60
2022-10-19T20:51:26.019Z,10.18
2022-10-19T20:53:57.932Z,9.65
2022-10-19T20:56:29.516Z,10.30
2022-10-19T20:58:58.442Z,9.27
2022-10-19T21:01:26.406Z,9.80
2022-10-19T21:03:55.824Z,8.38
2022-10-19T21:06:26.125Z,7.97
2022-10-19T21:08:56.550Z,8.17
2022-10-19T21:11:26.351Z,6.60
2022-10-19T21:13:56.791Z,6.80
2022-10-19T21:16:27.441Z,7.47
2022-10-19T21:18:55.318Z,9.00
2022-10-19T21:21:24.779Z,9.50
2022-10-19T21:23:55.782Z,10.90
2022-10-19T21:26:26.296Z,10.20
2022-10-19T21:28:56.580Z,11.18
2022-10-19T21:31:25.816Z,11.23
2022-10-19T21:33:54.289Z,10.02
2022-10-19T21:36:24.998Z,10.70
2022-10-19T21:38:52.974Z,11.15
2022-10-19T21:41:25.494Z,10.57
2022-10-19T21:43:55.778Z,10.23
2022-10-19T21:46:24.667Z,10.65
2022-10-19T21:48:53.335Z,11.80
2022-10-19T21:51:29.650Z,11.68
2022-10-19T21:53:57.592Z,11.15
2022-10-19T21:56:25.372Z,11.75
2022-10-19T21:58:55.727Z,11.82
2022-10-19T22:01:25.522Z,12.30
2022-10-19T22:03:56.252Z,12.15
2022-10-19T22:06:24.092Z,12.57
2022-10-19T22:08:52.117Z,11.87
2022-10-19T22:11:20.328Z,11.80
2022-10-19T22:13:48.169Z,11.57
2022-10-19T22:16:19.804Z,11.37
2022-10-19T22:18:49.801Z,10.70
2022-10-19T22:21:22.964Z,10.52
2022-10-19T22:23:55.648Z,10.95
2022-10-19T22:26:25.579Z,11.18
2022-10-19T22:28:55.410Z,9.07
2022-10-19T22:31:25.489Z,10.93
2022-10-19T22:33:53.421Z,11.37
2022-10-19T22:36:21.594Z,11.52
2022-10-19T22:38:49.331Z,10.93
2022-10-19T22:41:19.525Z,10.83
2022-10-19T22:43:47.231Z,10.30
2022-10-19T22:46:15.061Z,8.18
2022-10-19T22:48:44.256Z,7.15
2022-10-19T22:51:14.267Z,7.00
2022-10-19T22:53:42.006Z,9.38
2022-10-19T22:56:12.279Z,10.17
2022-10-19T22:58:40.520Z,10.02
2022-10-19T23:01:10.275Z,11.05
2022-10-19T23:03:39.314Z,11.07
2022-10-19T23:06:08.762Z,11.37
2022-10-19T23:08:36.609Z,12.15
2022-10-19T23:11:04.699Z,12.35
2022-10-19T23:13:35.205Z,13.00
2022-10-19T23:16:03.807Z,12.87
2022-10-19T23:18:31.761Z,12.90
2022-10-19T23:21:01.464Z,12.27
2022-10-19T23:23:32.166Z,12.00
2022-10-19T23:26:04.824Z,13.40
2022-10-19T23:28:33.877Z,12.25
2022-10-19T23:31:05.661Z,12.60
2022-10-19T23:33:33.929Z,12.00
2022-10-19T23:36:06.775Z,11.65
2022-10-19T23:38:36.054Z,11.85
2022-10-19T23:41:03.971Z,12.60
2022-10-19T23:43:32.131Z,13.15
2022-10-19T23:46:02.123Z,12.07
2022-10-19T23:48:30.042Z,12.32
2022-10-19T23:50:59.169Z,12.65
2022-10-19T23:53:27.486Z,11.93
2022-10-19T23:56:00.695Z,12.25
2022-10-19T23:58:29.130Z,11.90
